createdAt,value
2018-12-29T00:03:14.935Z,73.28
2018-12-29T00:07:20.033Z,73.16
2018-12-29T00:11:25.492Z,73.25
2018-12-29T00:15:30.663Z,73.51
2018-12-29T00:19:35.869Z,73.09
2018-12-29T00:23:40.842Z,73.16
2018-12-29T00:27:45.887Z,73.15
2018-12-29T00:31:51.413Z,73.04
2018-12-29T00:35:56.542Z,73.11
2018-12-29T00:40:01.462Z,72.88
2018-12-29T00:44:06.561Z,72.88
2018-12-29T00:48:11.670Z,72.96
2018-12-29T00:52:16.728Z,72.73
2018-12-29T00:56:21.721Z,72.54
2018-12-29T01:00:26.736Z,72.58
2018-12-29T01:04:31.808Z,72.67
2018-12-29T01:08:37.213Z,72.50
2018-12-29T01:12:42.274Z,72.40
2018-12-29T01:16:47.401Z,72.45
2018-12-29T01:20:52.430Z,72.23
2018-12-29T01:24:57.577Z,72.27
2018-12-29T01:29:02.749Z,72.21
2018-12-29T01:33:07.797Z,72.13
2018-12-29T01:37:12.932Z,72.11
2018-12-29T01:41:18.033Z,72.02
2018-12-29T01:45:23.121Z,71.92
2018-12-29T01:49:28.221Z,71.98
2018-12-29T01:53:33.550Z,72.01
2018-12-29T01:57:57.545Z,71.88
2018-12-29T02:02:02.725Z,71.89
2018-12-29T02:06:07.627Z,72.00
2018-12-29T02:10:12.650Z,72.14
2018-12-29T02:14:17.802Z,72.11
2018-12-29T02:18:22.898Z,71.94
2018-12-29T02:22:28.019Z,72.18
2018-12-29T02:26:33.064Z,72.14
2018-12-29T02:30:38.230Z,72.15
2018-12-29T02:34:43.249Z,72.21
2018-12-29T02:38:48.406Z,72.17
2018-12-29T02:42:53.501Z,72.16
2018-12-29T02:46:58.603Z,72.32
2018-12-29T02:51:03.693Z,72.66
2018-12-29T02:55:08.758Z,72.92
2018-12-29T02:59:13.861Z,73.35
2018-12-29T03:03:18.913Z,73.85
2018-12-29T03:07:23.986Z,74.28
2018-12-29T03:11:29.060Z,74.76
2018-12-29T03:15:40.900Z,75.17
2018-12-29T03:19:46.016Z,75.25
2018-12-29T03:23:51.077Z,75.48
2018-12-29T03:27:56.164Z,75.80
2018-12-29T03:32:01.248Z,75.97
2018-12-29T03:36:06.276Z,76.03
2018-12-29T03:40:11.427Z,76.18
2018-12-29T03:44:16.519Z,76.28
2018-12-29T03:48:21.577Z,76.25
2018-12-29T03:52:26.632Z,76.37
2018-12-29T03:56:31.662Z,76.51
2018-12-29T04:00:37.035Z,76.58
2018-12-29T04:04:42.121Z,76.67
2018-12-29T04:09:25.379Z,76.69
2018-12-29T04:13:30.430Z,76.75
2018-12-29T04:17:35.495Z,76.79
2018-12-29T04:21:40.536Z,76.94
2018-12-29T04:25:45.607Z,77.02
2018-12-29T04:29:50.687Z,77.06
2018-12-29T04:33:55.761Z,77.14
2018-12-29T04:38:00.846Z,77.19
2018-12-29T04:42:05.893Z,77.19
2018-12-29T04:46:11.028Z,77.25
2018-12-29T04:50:16.101Z,77.26
2018-12-29T04:54:21.203Z,77.22
2018-12-29T04:58:26.253Z,77.20
2018-12-29T05:02:31.288Z,77.13
2018-12-29T05:06:36.447Z,77.17
2018-12-29T05:10:41.425Z,77.13
2018-12-29T05:14:46.497Z,77.13
2018-12-29T05:18:51.550Z,77.12
2018-12-29T05:22:56.602Z,77.06
2018-12-29T05:27:01.654Z,77.16
2018-12-29T05:31:06.656Z,77.21
2018-12-29T05:35:11.701Z,77.21
2018-12-29T05:39:17.009Z,77.15
2018-12-29T05:43:22.136Z,77.15
2018-12-29T05:47:27.120Z,77.17
2018-12-29T05:51:32.479Z,77.11
2018-12-29T05:55:37.888Z,77.14
2018-12-29T05:59:42.867Z,77.21
2018-12-29T06:03:47.922Z,77.18
2018-12-29T06:07:53.529Z,77.26
2018-12-29T06:12:00.179Z,77.32
2018-12-29T06:16:05.299Z,77.27
2018-12-29T06:20:10.427Z,77.28
2018-12-29T06:24:15.463Z,77.28
2018-12-29T06:28:20.470Z,77.22
2018-12-29T06:32:26.092Z,77.22
2018-12-29T06:36:31.300Z,77.14
2018-12-29T06:40:36.343Z,77.10
2018-12-29T06:44:41.404Z,77.06
2018-12-29T06:48:46.379Z,77.01
2018-12-29T06:52:51.427Z,77.00
2018-12-29T06:56:56.404Z,77.00
2018-12-29T07:01:01.484Z,77.10
2018-12-29T07:05:06.556Z,77.06
2018-12-29T07:09:11.603Z,76.93
2018-12-29T07:13:18.798Z,76.91
2018-12-29T07:17:24.352Z,76.82
2018-12-29T07:21:29.412Z,76.79
2018-12-29T07:25:34.681Z,76.79
2018-12-29T07:29:39.748Z,76.66
2018-12-29T07:33:44.858Z,76.69
2018-12-29T07:37:49.880Z,76.57
2018-12-29T07:41:54.892Z,76.51
2018-12-29T07:45:59.907Z,76.48
2018-12-29T07:50:05.001Z,76.23
2018-12-29T07:54:10.350Z,76.21
2018-12-29T07:58:15.416Z,76.17
2018-12-29T08:02:20.612Z,76.11
2018-12-29T08:06:25.648Z,76.05
2018-12-29T08:10:30.950Z,75.99
2018-12-29T08:14:35.994Z,75.89
2018-12-29T08:18:40.985Z,75.81
2018-12-29T08:22:46.043Z,75.68
2018-12-29T08:26:51.016Z,75.64
2018-12-29T08:30:56.413Z,75.38
2018-12-29T08:35:01.466Z,75.31
2018-12-29T08:39:07.409Z,75.28
2018-12-29T08:43:12.406Z,75.15
2018-12-29T08:47:17.698Z,75.04
2018-12-29T08:51:22.685Z,75.15
2018-12-29T08:55:27.824Z,75.08
2018-12-29T08:59:32.823Z,74.91
2018-12-29T09:03:37.806Z,74.71
2018-12-29T09:07:42.898Z,74.58
2018-12-29T09:11:48.039Z,74.63
2018-12-29T09:15:53.105Z,74.55
2018-12-29T09:19:58.403Z,74.50
2018-12-29T09:24:03.755Z,74.29
2018-12-29T09:28:08.712Z,74.24
2018-12-29T09:32:13.818Z,74.13
2018-12-29T09:36:18.909Z,74.17
2018-12-29T09:40:23.974Z,74.04
2018-12-29T09:44:29.119Z,73.73
2018-12-29T09:48:34.251Z,73.64
2018-12-29T09:52:39.704Z,73.66
2018-12-29T09:56:44.895Z,73.42
2018-12-29T10:00:50.013Z,73.10
2018-12-29T10:04:55.502Z,73.07
2018-12-29T10:09:00.571Z,72.91
2018-12-29T10:13:05.739Z,72.82
2018-12-29T10:17:10.808Z,72.66
2018-12-29T10:21:15.879Z,72.54
2018-12-29T10:25:20.944Z,72.32
2018-12-29T10:29:26.024Z,72.05
2018-12-29T10:33:31.096Z,72.20
2018-12-29T10:37:36.168Z,71.83
2018-12-29T10:41:41.142Z,71.79
2018-12-29T10:45:46.206Z,71.78
2018-12-29T10:49:51.306Z,71.92
2018-12-29T10:53:56.450Z,71.89
2018-12-29T10:58:01.506Z,71.89
2018-12-29T11:02:06.638Z,71.88
2018-12-29T11:06:11.825Z,71.50
2018-12-29T11:10:16.916Z,71.07
2018-12-29T11:14:21.982Z,70.69
2018-12-29T11:18:27.029Z,70.49
2018-12-29T11:22:32.225Z,70.20
2018-12-29T11:26:37.308Z,70.24
2018-12-29T11:30:52.202Z,70.22
2018-12-29T11:34:57.225Z,70.33
2018-12-29T11:39:02.292Z,70.31
2018-12-29T11:43:07.363Z,70.25
2018-12-29T11:47:12.418Z,70.18
2018-12-29T11:51:17.486Z,69.96
2018-12-29T11:55:22.858Z,69.54
2018-12-29T11:59:28.206Z,69.23
2018-12-29T12:03:33.263Z,69.08
2018-12-29T12:07:38.487Z,68.81
2018-12-29T12:11:44.387Z,69.08
2018-12-29T12:15:49.353Z,68.88
2018-12-29T12:19:54.447Z,69.19
2018-12-29T12:23:59.466Z,69.25
2018-12-29T12:28:04.541Z,69.33
2018-12-29T12:32:09.609Z,68.94
2018-12-29T12:36:14.557Z,69.08
2018-12-29T12:40:19.649Z,68.96
2018-12-29T12:44:24.648Z,68.74
2018-12-29T12:48:29.777Z,68.85
2018-12-29T12:52:35.141Z,68.68
2018-12-29T12:56:40.267Z,69.10
2018-12-29T13:00:45.492Z,68.85
2018-12-29T13:04:50.954Z,69.06
2018-12-29T13:08:56.055Z,69.07
2018-12-29T13:13:01.487Z,69.04
2018-12-29T13:17:06.637Z,69.09
2018-12-29T13:21:11.718Z,69.44
2018-12-29T13:25:16.808Z,69.51
2018-12-29T13:29:21.869Z,69.85
2018-12-29T13:33:26.879Z,70.27
2018-12-29T13:37:32.837Z,70.39
2018-12-29T13:45:54.861Z,70.49
2018-12-29T13:49:59.951Z,70.81
2018-12-29T13:54:05.083Z,71.68
2018-12-29T13:58:10.125Z,72.38
2018-12-29T14:02:15.314Z,72.56
2018-12-29T14:06:20.513Z,72.67
2018-12-29T14:10:25.766Z,72.59
2018-12-29T14:14:30.890Z,72.49
2018-12-29T14:18:35.998Z,72.47
2018-12-29T14:22:41.472Z,72.05
2018-12-29T14:26:46.589Z,72.22
2018-12-29T14:30:51.669Z,71.97
2018-12-29T14:34:56.770Z,72.11
2018-12-29T14:39:01.817Z,72.24
2018-12-29T14:43:06.802Z,72.44
2018-12-29T14:47:12.205Z,72.57
2018-12-29T14:51:17.278Z,72.29
2018-12-29T14:55:22.650Z,72.39
2018-12-29T14:59:27.841Z,72.17
2018-12-29T15:03:32.901Z,72.33
2018-12-29T15:07:37.983Z,72.56
2018-12-29T15:11:43.065Z,72.44
2018-12-29T15:15:48.061Z,72.54
2018-12-29T15:19:53.353Z,73.12
2018-12-29T15:23:58.354Z,74.07
2018-12-29T15:28:03.406Z,74.46
2018-12-29T15:32:15.594Z,74.88
2018-12-29T15:36:20.708Z,75.11
2018-12-29T15:40:25.775Z,75.34
2018-12-29T15:44:30.865Z,75.78
2018-12-29T15:48:36.245Z,76.08
2018-12-29T15:52:41.301Z,76.20
2018-12-29T15:56:46.314Z,76.24
2018-12-29T16:00:51.395Z,76.17
2018-12-29T16:04:56.506Z,76.18
2018-12-29T16:09:01.589Z,76.51
2018-12-29T16:13:08.500Z,76.70
2018-12-29T16:17:13.426Z,76.90
2018-12-29T16:21:30.663Z,76.89
2018-12-29T16:25:35.786Z,76.86
2018-12-29T16:29:40.775Z,76.89
2018-12-29T16:33:45.731Z,77.04
2018-12-29T16:37:57.969Z,77.28
2018-12-29T16:42:03.029Z,77.35
2018-12-29T16:46:08.005Z,77.52
2018-12-29T16:50:13.162Z,77.53
2018-12-29T16:54:18.152Z,77.54
2018-12-29T16:58:23.161Z,77.45
2018-12-29T17:02:28.789Z,77.37
2018-12-29T17:06:33.796Z,77.42
2018-12-29T17:10:38.785Z,77.41
2018-12-29T17:19:00.886Z,77.15
2018-12-29T17:23:06.002Z,77.15
2018-12-29T17:27:11.286Z,77.15
2018-12-29T17:31:16.322Z,77.13
2018-12-29T17:40:05.926Z,77.00
2018-12-29T17:44:10.954Z,76.76
2018-12-29T17:48:16.057Z,76.64
2018-12-29T17:52:21.178Z,76.58
2018-12-29T17:56:26.240Z,76.58
2018-12-29T18:00:31.417Z,76.70
2018-12-29T18:04:36.798Z,76.68
2018-12-29T18:08:41.971Z,76.72
2018-12-29T18:17:38.439Z,76.82
2018-12-29T18:21:43.471Z,76.84
2018-12-29T18:25:48.529Z,76.97
2018-12-29T18:30:12.983Z,77.02
2018-12-29T18:34:18.010Z,77.06
2018-12-29T18:43:07.181Z,77.18
2018-12-29T18:47:12.645Z,77.18
2018-12-29T18:51:17.753Z,77.21
2018-12-29T18:55:30.113Z,77.24
2018-12-29T18:59:35.110Z,77.28
2018-12-29T19:03:40.235Z,77.35
2018-12-29T19:07:57.120Z,77.46
2018-12-29T19:12:02.213Z,77.46
2018-12-29T19:16:07.554Z,77.29
2018-12-29T19:29:26.348Z,77.09
2018-12-29T19:33:31.595Z,77.20
2018-12-29T19:37:58.125Z,77.18
2018-12-29T19:42:03.196Z,76.82
2018-12-29T19:46:08.580Z,76.75
2018-12-29T19:50:13.617Z,76.42
2018-12-29T19:54:18.689Z,76.28
2018-12-29T19:58:23.751Z,76.37
2018-12-29T20:02:28.785Z,76.36
2018-12-29T20:06:34.053Z,76.48
2018-12-29T20:10:39.051Z,76.59
2018-12-29T20:14:56.019Z,76.15
2018-12-29T20:19:01.021Z,76.15
2018-12-29T20:23:06.155Z,76.40
2018-12-29T20:27:11.411Z,76.14
2018-12-29T20:31:16.424Z,76.12
2018-12-29T20:35:21.611Z,75.93
2018-12-29T20:43:45.413Z,75.65
2018-12-29T20:47:52.236Z,75.20
2018-12-29T20:51:57.191Z,75.20
2018-12-29T20:56:02.302Z,75.24
2018-12-29T21:00:09.057Z,75.23
2018-12-29T21:04:14.045Z,74.85
2018-12-29T21:08:19.030Z,74.74
2018-12-29T21:12:24.095Z,73.26
2018-12-29T21:16:29.103Z,73.26
2018-12-29T21:20:34.092Z,73.37
2018-12-29T21:24:39.193Z,72.84
2018-12-29T21:28:44.382Z,72.47
2018-12-29T21:32:49.785Z,72.98
2018-12-29T21:36:54.834Z,73.62
2018-12-29T21:40:59.931Z,72.76
2018-12-29T21:45:05.155Z,70.70
2018-12-29T21:49:11.206Z,67.16
2018-12-29T21:53:16.347Z,66.95
2018-12-29T21:57:21.357Z,65.43
2018-12-29T22:01:26.499Z,62.12
2018-12-29T22:05:32.294Z,63.18
2018-12-29T22:09:37.369Z,61.04
2018-12-29T22:13:42.312Z,61.39
2018-12-29T22:17:47.324Z,61.13
2018-12-29T22:21:52.420Z,60.47
2018-12-29T22:25:57.501Z,60.91
2018-12-29T22:30:02.628Z,60.69
2018-12-29T22:34:07.748Z,60.36
2018-12-29T22:38:12.800Z,61.37
2018-12-29T22:42:17.809Z,61.61
2018-12-29T22:46:22.919Z,61.61
2018-12-29T22:50:28.003Z,61.68
2018-12-29T22:54:33.056Z,61.19
2018-12-29T22:58:45.372Z,61.57
2018-12-29T23:02:50.404Z,60.71
2018-12-29T23:07:16.489Z,60.71
2018-12-29T23:11:21.553Z,58.90
2018-12-29T23:15:26.615Z,59.31
2018-12-29T23:19:31.671Z,59.16
2018-12-29T23:23:48.529Z,59.89
2018-12-29T23:27:53.581Z,61.56
2018-12-29T23:31:58.580Z,63.02
2018-12-29T23:36:47.907Z,62.85
2018-12-29T23:40:53.200Z,63.36
2018-12-29T23:44:58.441Z,63.07
2018-12-29T23:58:34.963Z,63.12
